Time,TemperatureF,DewpointF,PressureIn,WindDirection,WindDirectionDegrees,WindSpeedMPH,WindSpeedGustMPH,Humidity,HourlyPrecipIn,Conditions,Clouds,dailyrainin,SoftwareType,DateUTC
2013-01-09 18:19:00,42.9,37.0,30.33,WNW,298,1.0,3.0,79,0.00,,,0.00,weatherlink.com 1.10,2013-01-09 23:19:00,
2013-01-09 18:34:00,42.7,37.0,30.34,WNW,289,2.0,2.0,80,0.00,,,0.00,weatherlink.com 1.10,2013-01-09 23:34:00,
2013-01-09 18:50:00,42.5,37.0,30.34,West,270,1.0,3.0,81,0.00,,,0.00,weatherlink.com 1.10,2013-01-09 23:50:00,
2013-01-09 19:05:00,42.1,37.0,30.34,WNW,285,0.0,2.0,82,0.00,,,0.00,weatherlink.com 1.10,2013-01-10 00:05:00,
2013-01-09 19:20:00,41.9,37.0,30.34,WNW,286,1.0,3.0,83,0.00,,,0.00,weatherlink.com 1.10,2013-01-10 00:20:00,
2013-01-09 19:35:00,42.5,37.0,30.34,West,274,2.0,3.0,82,0.00,,,0.00,weatherlink.com 1.10,2013-01-10 00:35:00,
2013-01-09 19:50:00,44.3,39.0,30.35,West,281,3.0,4.0,80,0.00,,,0.00,weatherlink.com 1.10,2013-01-10 00:50:00,
2013-01-09 20:05:00,44.6,38.0,30.35,NW,309,1.0,3.0,79,0.00,,,0.00,weatherlink.com 1.10,2013-01-10 01:05:00,
2013-01-09 20:20:00,44.8,38.0,30.35,NW,306,1.0,4.0,77,0.00,,,0.00,weatherlink.com 1.10,2013-01-10 01:20:00,
2013-01-09 20:35:00,44.3,38.0,30.35,WNW,296,1.0,3.0,79,0.00,,,0.00,weatherlink.com 1.10,2013-01-10 01:35:00,
2013-01-09 20:50:00,44.0,38.0,30.36,WNW,301,1.0,3.0,79,0.00,,,0.00,weatherlink.com 1.10,2013-01-10 01:50:00,
2013-01-09 21:05:00,44.1,38.0,30.36,West,281,1.0,3.0,79,0.00,,,0.00,weatherlink.com 1.10,2013-01-10 02:05:00,
2013-01-09 21:20:00,43.7,38.0,30.35,NNW,334,1.0,3.0,79,0.00,,,0.00,weatherlink.com 1.10,2013-01-10 02:20:00,
2013-01-09 21:35:00,44.0,37.0,30.36,WNW,293,2.0,4.0,77,0.00,,,0.00,weatherlink.com 1.10,2013-01-10 02:35:00,
2013-01-09 21:50:00,43.9,37.0,30.36,NW,304,1.0,4.0,76,0.00,,,0.00,weatherlink.com 1.10,2013-01-10 02:50:00,
2013-01-09 22:05:00,43.6,36.0,30.36,NW,315,2.0,3.0,75,0.00,,,0.00,weatherlink.com 1.10,2013-01-10 03:05:00,
2013-01-09 22:20:00,43.2,35.0,30.36,NW,319,3.0,3.0,74,0.00,,,0.00,weatherlink.com 1.10,2013-01-10 03:20:00,
2013-01-09 22:35:00,43.1,35.0,30.37,NW,317,1.0,3.0,73,0.00,,,0.00,weatherlink.com 1.10,2013-01-10 03:35:00,
2013-01-09 22:50:00,43.1,34.0,30.38,NW,309,3.0,3.0,71,0.00,,,0.00,weatherlink.com 1.10,2013-01-10 03:50:00,
2013-01-09 23:05:00,43.0,34.0,30.38,WNW,295,3.0,3.0,70,0.00,,,0.00,weatherlink.com 1.10,2013-01-10 04:05:00,
2013-01-09 23:20:00,42.9,33.0,30.39,WNW,291,2.0,4.0,68,0.00,,,0.00,weatherlink.com 1.10,2013-01-10 04:20:00,
2013-01-09 23:35:00,43.2,32.0,30.39,NNW,332,1.0,3.0,64,0.00,,,0.00,weatherlink.com 1.10,2013-01-10 04:35:00,
2013-01-09 23:50:00,43.1,31.0,30.40,NW,310,1.0,3.0,63,0.00,,,0.00,weatherlink.com 1.10,2013-01-10 04:50:00,